sensor_id;sensor_type;location;lat;lon;timestamp;pressure;altitude;pressure_sealevel;temperature;humidity
6532;BME280;3299;42.004;24.868;2023-01-01T00:01:27;99619.50;;;8.02;89.81
6532;BME280;3299;42.004;24.868;2023-01-01T00:03:54;99683.19;;;8.43;90.56
6532;BME280;3299;42.004;24.868;2023-01-01T00:06:20;99666.44;;;8.33;92.20
6532;BME280;3299;42.004;24.868;2023-01-01T00:08:46;99683.44;;;8.37;91.32
6532;BME280;3299;42.004;24.868;2023-01-01T00:11:13;99625.88;;;8.15;89.59
6532;BME280;3299;42.004;24.868;2023-01-01T00:13:40;99670.94;;;8.28;89.75
6532;BME280;3299;42.004;24.868;2023-01-01T00:16:08;99680.38;;;8.27;90.86
6532;BME280;3299;42.004;24.868;2023-01-01T00:18:34;99644.94;;;8.11;90.58
6532;BME280;3299;42.004;24.868;2023-01-01T00:21:04;99616.75;;;8.06;89.59
6532;BME280;3299;42.004;24.868;2023-01-01T00:23:30;99681.34;;;8.46;88.51
6532;BME280;3299;42.004;24.868;2023-01-01T00:25:58;99671.91;;;8.45;87.30
6532;BME280;3299;42.004;24.868;2023-01-01T00:28:23;99652.69;;;8.32;86.72
6532;BME280;3299;42.004;24.868;2023-01-01T00:30:49;99581.47;;;7.87;87.30
6532;BME280;3299;42.004;24.868;2023-01-01T00:33:14;99619.91;;;8.13;87.28
6532;BME280;3299;42.004;24.868;2023-01-01T00:35:39;99627.41;;;8.19;87.39
6532;BME280;3299;42.004;24.868;2023-01-01T00:38:05;99683.28;;;8.41;88.98
6532;BME280;3299;42.004;24.868;2023-01-01T00:40:31;99587.88;;;7.77;90.48
6532;BME280;3299;42.004;24.868;2023-01-01T00:42:56;99630.41;;;8.08;91.68
6532;BME280;3299;42.004;24.868;2023-01-01T00:45:22;99686.44;;;8.26;93.01
6532;BME280;3299;42.004;24.868;2023-01-01T00:47:51;99641.22;;;7.96;93.68
6532;BME280;3299;42.004;24.868;2023-01-01T00:50:18;99691.59;;;8.26;93.93
6532;BME280;3299;42.004;24.868;2023-01-01T00:52:44;99630.38;;;7.88;93.63
6532;BME280;3299;42.004;24.868;2023-01-01T00:55:09;99675.41;;;8.23;91.22
6532;BME280;3299;42.004;24.868;2023-01-01T00:57:35;99645.41;;;7.99;90.41
6532;BME280;3299;42.004;24.868;2023-01-01T01:00:00;99681.03;;;8.11;92.61
6532;BME280;3299;42.004;24.868;2023-01-01T01:02:26;99644.13;;;7.87;91.60
6532;BME280;3299;42.004;24.868;2023-01-01T01:04:51;99689.28;;;8.19;92.39
6532;BME280;3299;42.004;24.868;2023-01-01T01:07:16;99692.06;;;8.14;92.67
6532;BME280;3299;42.004;24.868;2023-01-01T01:09:42;99711.31;;;8.27;92.82
6532;BME280;3299;42.004;24.868;2023-01-01T01:12:07;99700.78;;;8.33;91.64
6532;BME280;3299;42.004;24.868;2023-01-01T01:14:33;99711.22;;;8.30;90.86
6532;BME280;3299;42.004;24.868;2023-01-01T01:16:58;99688.56;;;8.15;91.53
6532;BME280;3299;42.004;24.868;2023-01-01T01:19:23;99706.34;;;8.23;92.55
6532;BME280;3299;42.004;24.868;2023-01-01T01:21:50;99647.19;;;7.97;91.33
6532;BME280;3299;42.004;24.868;2023-01-01T01:24:16;99711.28;;;8.29;91.13
6532;BME280;3299;42.004;24.868;2023-01-01T01:26:42;99661.53;;;8.04;89.44
6532;BME280;3299;42.004;24.868;2023-01-01T01:29:07;99622.50;;;7.91;88.69
6532;BME280;3299;42.004;24.868;2023-01-01T01:31:33;99692.47;;;8.27;89.53
6532;BME280;3299;42.004;24.868;2023-01-01T01:33:59;99688.75;;;8.34;89.63
6532;BME280;3299;42.004;24.868;2023-01-01T01:36:25;99598.78;;;7.83;89.44
6532;BME280;3299;42.004;24.868;2023-01-01T01:38:51;99618.84;;;7.97;89.55
6532;BME280;3299;42.004;24.868;2023-01-01T01:41:20;99615.31;;;7.99;88.26
6532;BME280;3299;42.004;24.868;2023-01-01T01:44:03;99570.25;;;7.66;89.08
6532;BME280;3299;42.004;24.868;2023-01-01T01:46:33;99639.72;;;8.12;89.10
6532;BME280;3299;42.004;24.868;2023-01-01T01:49:12;99609.50;;;7.94;89.57
6532;BME280;3299;42.004;24.868;2023-01-01T01:51:39;99612.25;;;7.90;88.49
6532;BME280;3299;42.004;24.868;2023-01-01T01:54:10;99603.38;;;7.97;90.13
6532;BME280;3299;42.004;24.868;2023-01-01T01:56:46;99584.31;;;7.79;88.76
6532;BME280;3299;42.004;24.868;2023-01-01T01:59:15;99617.34;;;7.91;90.44
6532;BME280;3299;42.004;24.868;2023-01-01T02:01:41;99662.31;;;8.06;91.09
6532;BME280;3299;42.004;24.868;2023-01-01T02:04:06;99617.69;;;7.82;91.72
6532;BME280;3299;42.004;24.868;2023-01-01T02:06:33;99662.59;;;8.21;91.78
6532;BME280;3299;42.004;24.868;2023-01-01T02:09:01;99623.94;;;7.98;91.13
6532;BME280;3299;42.004;24.868;2023-01-01T02:11:28;99665.06;;;8.24;92.00
6532;BME280;3299;42.004;24.868;2023-01-01T02:13:54;99612.34;;;7.88;91.59
6532;BME280;3299;42.004;24.868;2023-01-01T02:21:48;99613.16;;;7.89;90.10
6532;BME280;3299;42.004;24.868;2023-01-01T02:26:59;99618.78;;;7.98;89.61
6532;BME280;3299;42.004;24.868;2023-01-01T02:32:11;99627.41;;;7.97;90.78
6532;BME280;3299;42.004;24.868;2023-01-01T02:35:16;99653.66;;;8.07;91.71
6532;BME280;3299;42.004;24.868;2023-01-01T02:38:07;99677.44;;;8.15;93.27
6532;BME280;3299;42.004;24.868;2023-01-01T02:40:37;99636.38;;;7.87;94.18
6532;BME280;3299;42.004;24.868;2023-01-01T02:43:04;99655.75;;;7.97;94.36
6532;BME280;3299;42.004;24.868;2023-01-01T02:45:31;99651.25;;;7.81;94.63
6532;BME280;3299;42.004;24.868;2023-01-01T02:47:56;99676.81;;;8.08;95.21
6532;BME280;3299;42.004;24.868;2023-01-01T02:50:24;99681.97;;;8.08;95.28
6532;BME280;3299;42.004;24.868;2023-01-01T02:53:19;99615.59;;;7.47;96.17
6532;BME280;3299;42.004;24.868;2023-01-01T02:56:24;99622.31;;;7.51;97.38
6532;BME280;3299;42.004;24.868;2023-01-01T02:58:56;99686.63;;;7.77;97.96
6532;BME280;3299;42.004;24.868;2023-01-01T03:05:07;99663.97;;;7.62;98.90
6532;BME280;3299;42.004;24.868;2023-01-01T03:08:14;99634.06;;;7.35;99.88
6532;BME280;3299;42.004;24.868;2023-01-01T03:10:49;99683.81;;;7.60;99.99
6532;BME280;3299;42.004;24.868;2023-01-01T03:13:39;99671.19;;;7.53;100.00
6532;BME280;3299;42.004;24.868;2023-01-01T03:19:18;99670.56;;;7.46;100.00
6532;BME280;3299;42.004;24.868;2023-01-01T03:21:54;99608.69;;;7.02;100.00
6532;BME280;3299;42.004;24.868;2023-01-01T03:26:55;99672.53;;;7.17;100.00
6532;BME280;3299;42.004;24.868;2023-01-01T03:29:23;99673.84;;;7.27;100.00
6532;BME280;3299;42.004;24.868;2023-01-01T03:31:52;99609.66;;;6.99;100.00
6532;BME280;3299;42.004;24.868;2023-01-01T03:34:24;99623.38;;;7.00;100.00
6532;BME280;3299;42.004;24.868;2023-01-01T03:36:56;99681.66;;;7.25;100.00
6532;BME280;3299;42.004;24.868;2023-01-01T03:39:40;99670.00;;;7.15;100.00
6532;BME280;3299;42.004;24.868;2023-01-01T03:42:31;99624.94;;;6.79;100.00
6532;BME280;3299;42.004;24.868;2023-01-01T03:45:02;99616.97;;;6.87;100.00
6532;BME280;3299;42.004;24.868;2023-01-01T03:47:29;99671.56;;;7.19;100.00
6532;BME280;3299;42.004;24.868;2023-01-01T03:49:56;99631.03;;;6.77;100.00
6532;BME280;3299;42.004;24.868;2023-01-01T03:57:58;99682.59;;;7.23;100.00
6532;BME280;3299;42.004;24.868;2023-01-01T04:00:50;99695.00;;;7.36;100.00
6532;BME280;3299;42.004;24.868;2023-01-01T04:03:23;99706.28;;;7.32;100.00
6532;BME280;3299;42.004;24.868;2023-01-01T04:05:50;99644.78;;;7.00;100.00
6532;BME280;3299;42.004;24.868;2023-01-01T04:08:16;99639.84;;;6.94;100.00
6532;BME280;3299;42.004;24.868;2023-01-01T04:10:45;99704.81;;;7.25;100.00
6532;BME280;3299;42.004;24.868;2023-01-01T04:13:12;99659.22;;;7.04;100.00
6532;BME280;3299;42.004;24.868;2023-01-01T04:15:38;99691.81;;;7.28;100.00
6532;BME280;3299;42.004;24.868;2023-01-01T04:18:03;99634.91;;;6.88;100.00
6532;BME280;3299;42.004;24.868;2023-01-01T04:20:29;99678.81;;;7.08;100.00
6532;BME280;3299;42.004;24.868;2023-01-01T04:22:57;99676.84;;;7.15;100.00
6532;BME280;3299;42.004;24.868;2023-01-01T04:25:23;99649.34;;;6.92;100.00
6532;BME280;3299;42.004;24.868;2023-01-01T04:27:49;99648.88;;;6.81;100.00
6532;BME280;3299;42.004;24.868;2023-01-01T04:30:15;99689.19;;;7.05;100.00
6532;BME280;3299;42.004;24.868;2023-01-01T04:32:41;99613.78;;;6.54;100.00
6532;BME280;3299;42.004;24.868;2023-01-01T04:35:08;99673.97;;;6.99;100.00
6532;BME280;3299;42.004;24.868;2023-01-01T04:37:36;99690.78;;;7.09;100.00
6532;BME280;3299;42.004;24.868;2023-01-01T04:40:03;99693.75;;;6.99;100.00
6532;BME280;3299;42.004;24.868;2023-01-01T04:42:28;99623.78;;;6.63;100.00
6532;BME280;3299;42.004;24.868;2023-01-01T04:44:54;99633.16;;;6.64;100.00
6532;BME280;3299;42.004;24.868;2023-01-01T04:47:19;99673.97;;;6.99;100.00
6532;BME280;3299;42.004;24.868;2023-01-01T04:49:44;99635.66;;;6.67;100.00
6532;BME280;3299;42.004;24.868;2023-01-01T04:52:10;99680.78;;;7.00;100.00
6532;BME280;3299;42.004;24.868;2023-01-01T04:54:35;99622.91;;;6.63;100.00
6532;BME280;3299;42.004;24.868;2023-01-01T04:57:01;99610.81;;;6.66;100.00
6532;BME280;3299;42.004;24.868;2023-01-01T04:59:28;99694.47;;;7.02;100.00
6532;BME280;3299;42.004;24.868;2023-01-01T05:01:54;99616.63;;;6.71;100.00
6532;BME280;3299;42.004;24.868;2023-01-01T05:04:20;99637.75;;;6.81;100.00
6532;BME280;3299;42.004;24.868;2023-01-01T05:06:45;99641.84;;;6.86;100.00
6532;BME280;3299;42.004;24.868;2023-01-01T05:09:11;99636.91;;;6.80;100.00
6532;BME280;3299;42.004;24.868;2023-01-01T05:11:37;99651.84;;;6.95;100.00
6532;BME280;3299;42.004;24.868;2023-01-01T05:14:03;99709.06;;;7.26;100.00
6532;BME280;3299;42.004;24.868;2023-01-01T05:16:33;99706.44;;;7.28;100.00
6532;BME280;3299;42.004;24.868;2023-01-01T05:18:59;99710.75;;;7.27;100.00
6532;BME280;3299;42.004;24.868;2023-01-01T05:21:33;99687.00;;;7.19;99.15
6532;BME280;3299;42.004;24.868;2023-01-01T05:24:07;99691.44;;;7.16;100.00
6532;BME280;3299;42.004;24.868;2023-01-01T05:26:35;99718.44;;;7.29;100.00
6532;BME280;3299;42.004;24.868;2023-01-01T05:29:04;99716.59;;;7.32;99.21
6532;BME280;3299;42.004;24.868;2023-01-01T05:31:32;99721.47;;;7.40;96.48
6532;BME280;3299;42.004;24.868;2023-01-01T05:33:58;99704.66;;;7.30;96.20
6532;BME280;3299;42.004;24.868;2023-01-01T05:36:26;99701.81;;;7.37;95.72
6532;BME280;3299;42.004;24.868;2023-01-01T05:38:53;99663.84;;;7.19;94.89
6532;BME280;3299;42.004;24.868;2023-01-01T05:41:19;99668.19;;;7.17;94.25
6532;BME280;3299;42.004;24.868;2023-01-01T05:43:45;99631.03;;;7.01;98.63
6532;BME280;3299;42.004;24.868;2023-01-01T05:46:17;99682.47;;;7.26;100.00
6532;BME280;3299;42.004;24.868;2023-01-01T05:48:43;99683.22;;;7.29;100.00
6532;BME280;3299;42.004;24.868;2023-01-01T05:51:10;99741.22;;;7.64;100.00
6532;BME280;3299;42.004;24.868;2023-01-01T05:53:36;99730.91;;;7.39;100.00
6532;BME280;3299;42.004;24.868;2023-01-01T05:56:02;99736.19;;;7.36;100.00
6532;BME280;3299;42.004;24.868;2023-01-01T05:58:30;99651.28;;;6.86;100.00
6532;BME280;3299;42.004;24.868;2023-01-01T06:00:56;99729.81;;;7.22;100.00
6532;BME280;3299;42.004;24.868;2023-01-01T06:03:21;99699.63;;;7.02;100.00
6532;BME280;3299;42.004;24.868;2023-01-01T06:05:47;99694.78;;;6.93;100.00
6532;BME280;3299;42.004;24.868;2023-01-01T06:08:13;99691.28;;;6.94;100.00
6532;BME280;3299;42.004;24.868;2023-01-01T06:10:38;99739.44;;;7.17;100.00
6532;BME280;3299;42.004;24.868;2023-01-01T06:13:04;99717.09;;;7.17;100.00
6532;BME280;3299;42.004;24.868;2023-01-01T06:15:29;99692.19;;;6.93;100.00
6532;BME280;3299;42.004;24.868;2023-01-01T06:17:56;99717.91;;;6.93;100.00
6532;BME280;3299;42.004;24.868;2023-01-01T06:20:23;99730.69;;;6.96;100.00
6532;BME280;3299;42.004;24.868;2023-01-01T06:22:48;99709.44;;;6.91;100.00
6532;BME280;3299;42.004;24.868;2023-01-01T06:25:14;99728.91;;;6.98;100.00
6532;BME280;3299;42.004;24.868;2023-01-01T06:27:39;99734.25;;;6.92;100.00
6532;BME280;3299;42.004;24.868;2023-01-01T06:30:06;99707.06;;;6.85;100.00
6532;BME280;3299;42.004;24.868;2023-01-01T06:32:32;99678.28;;;6.74;100.00
6532;BME280;3299;42.004;24.868;2023-01-01T06:34:57;99704.97;;;6.96;100.00
6532;BME280;3299;42.004;24.868;2023-01-01T06:37:27;99664.50;;;6.75;100.00
6532;BME280;3299;42.004;24.868;2023-01-01T06:39:52;99648.88;;;6.81;100.00
6532;BME280;3299;42.004;24.868;2023-01-01T06:42:18;99638.84;;;6.98;98.72
6532;BME280;3299;42.004;24.868;2023-01-01T06:44:43;99651.81;;;7.20;97.14
6532;BME280;3299;42.004;24.868;2023-01-01T06:47:08;99684.34;;;7.45;95.70
6532;BME280;3299;42.004;24.868;2023-01-01T06:49:34;99602.44;;;7.09;94.39
6532;BME280;3299;42.004;24.868;2023-01-01T06:51:59;99661.53;;;7.36;98.42
6532;BME280;3299;42.004;24.868;2023-01-01T06:54:24;99713.41;;;7.72;100.00
6532;BME280;3299;42.004;24.868;2023-01-01T06:56:50;99659.03;;;7.33;100.00
6532;BME280;3299;42.004;24.868;2023-01-01T06:59:16;99672.47;;;7.41;100.00
6532;BME280;3299;42.004;24.868;2023-01-01T07:01:42;99701.00;;;7.60;100.00
6532;BME280;3299;42.004;24.868;2023-01-01T07:04:11;99692.44;;;7.59;100.00
6532;BME280;3299;42.004;24.868;2023-01-01T07:06:37;99688.28;;;7.55;100.00
6532;BME280;3299;42.004;24.868;2023-01-01T07:09:04;99717.06;;;7.66;100.00
6532;BME280;3299;42.004;24.868;2023-01-01T07:11:30;99740.72;;;7.77;100.00
6532;BME280;3299;42.004;24.868;2023-01-01T07:13:56;99739.19;;;7.72;100.00
6532;BME280;3299;42.004;24.868;2023-01-01T07:16:22;99652.66;;;7.20;100.00
6532;BME280;3299;42.004;24.868;2023-01-01T07:18:48;99741.25;;;7.85;100.00
6532;BME280;3299;42.004;24.868;2023-01-01T07:21:42;99738.97;;;8.01;99.72
6532;BME280;3299;42.004;24.868;2023-01-01T07:24:11;99732.84;;;8.03;97.41
6532;BME280;3299;42.004;24.868;2023-01-01T07:26:37;99686.16;;;7.89;92.89
6532;BME280;3299;42.004;24.868;2023-01-01T07:29:02;99687.66;;;8.16;89.21
6532;BME280;3299;42.004;24.868;2023-01-01T07:31:28;99669.63;;;8.16;89.68
6532;BME280;3299;42.004;24.868;2023-01-01T07:33:53;99726.66;;;8.53;92.47
6532;BME280;3299;42.004;24.868;2023-01-01T07:36:19;99743.31;;;8.66;94.29
6532;BME280;3299;42.004;24.868;2023-01-01T07:38:45;99671.31;;;8.17;94.12
6532;BME280;3299;42.004;24.868;2023-01-01T07:41:11;99741.63;;;8.65;90.77
6532;BME280;3299;42.004;24.868;2023-01-01T07:43:36;99694.19;;;8.48;94.51
6532;BME280;3299;42.004;24.868;2023-01-01T07:46:02;99696.94;;;8.43;94.65
6532;BME280;3299;42.004;24.868;2023-01-01T07:48:28;99741.91;;;8.79;87.90
6532;BME280;3299;42.004;24.868;2023-01-01T07:50:54;99754.06;;;8.97;87.76
6532;BME280;3299;42.004;24.868;2023-01-01T07:53:19;99759.59;;;9.10;90.70
6532;BME280;3299;42.004;24.868;2023-01-01T07:55:44;99749.00;;;9.16;89.04
6532;BME280;3299;42.004;24.868;2023-01-01T07:58:10;99744.69;;;9.16;87.07
6532;BME280;3299;42.004;24.868;2023-01-01T08:00:36;99701.94;;;9.09;83.75
6532;BME280;3299;42.004;24.868;2023-01-01T08:03:02;99732.41;;;9.41;82.52
6532;BME280;3299;42.004;24.868;2023-01-01T08:05:27;99746.78;;;9.67;81.78
6532;BME280;3299;42.004;24.868;2023-01-01T08:07:53;99754.91;;;9.77;80.27
6532;BME280;3299;42.004;24.868;2023-01-01T08:10:19;99759.41;;;9.92;83.62
6532;BME280;3299;42.004;24.868;2023-01-01T08:12:45;99778.84;;;10.01;86.53
6532;BME280;3299;42.004;24.868;2023-01-01T08:15:12;99778.13;;;9.97;88.06
6532;BME280;3299;42.004;24.868;2023-01-01T08:17:37;99751.00;;;9.69;89.32
6532;BME280;3299;42.004;24.868;2023-01-01T08:20:05;99776.16;;;9.84;89.66
6532;BME280;3299;42.004;24.868;2023-01-01T08:22:30;99782.03;;;9.87;89.82
6532;BME280;3299;42.004;24.868;2023-01-01T08:24:56;99777.22;;;9.80;90.19
6532;BME280;3299;42.004;24.868;2023-01-01T08:27:21;99751.97;;;9.67;90.00
6532;BME280;3299;42.004;24.868;2023-01-01T08:29:47;99744.53;;;9.59;89.27
6532;BME280;3299;42.004;24.868;2023-01-01T08:32:12;99804.25;;;9.91;89.28
6532;BME280;3299;42.004;24.868;2023-01-01T08:34:38;99766.34;;;9.72;87.85
6532;BME280;3299;42.004;24.868;2023-01-01T08:37:04;99823.53;;;10.04;86.88
6532;BME280;3299;42.004;24.868;2023-01-01T08:39:29;99765.53;;;9.72;86.97
6532;BME280;3299;42.004;24.868;2023-01-01T08:41:55;99835.38;;;10.10;85.26
6532;BME280;3299;42.004;24.868;2023-01-01T08:44:20;99805.47;;;10.03;85.14
6532;BME280;3299;42.004;24.868;2023-01-01T08:46:46;99765.81;;;9.84;84.54
6532;BME280;3299;42.004;24.868;2023-01-01T08:49:11;99814.47;;;10.14;84.76
6532;BME280;3299;42.004;24.868;2023-01-01T08:51:37;99814.88;;;10.24;84.38
6532;BME280;3299;42.004;24.868;2023-01-01T08:54:02;99809.50;;;10.28;84.06
6532;BME280;3299;42.004;24.868;2023-01-01T08:56:28;99827.06;;;10.40;83.71
6532;BME280;3299;42.004;24.868;2023-01-01T08:58:54;99823.38;;;10.46;83.04
6532;BME280;3299;42.004;24.868;2023-01-01T09:01:19;99755.84;;;10.15;83.08
6532;BME280;3299;42.004;24.868;2023-01-01T09:03:50;99760.00;;;10.17;82.60
6532;BME280;3299;42.004;24.868;2023-01-01T09:06:15;99768.81;;;10.32;82.97
6532;BME280;3299;42.004;24.868;2023-01-01T09:08:41;99814.00;;;10.62;82.63
6532;BME280;3299;42.004;24.868;2023-01-01T09:11:06;99742.06;;;10.33;82.18
6532;BME280;3299;42.004;24.868;2023-01-01T09:13:32;99796.91;;;10.76;81.94
6532;BME280;3299;42.004;24.868;2023-01-01T09:15:58;99791.44;;;10.82;81.85
6532;BME280;3299;42.004;24.868;2023-01-01T09:18:24;99759.13;;;10.72;81.34
6532;BME280;3299;42.004;24.868;2023-01-01T09:20:49;99741.06;;;10.71;81.17
6532;BME280;3299;42.004;24.868;2023-01-01T09:23:15;99744.84;;;10.82;80.58
6532;BME280;3299;42.004;24.868;2023-01-01T09:25:40;99788.88;;;11.16;79.71
6532;BME280;3299;42.004;24.868;2023-01-01T09:28:09;99781.66;;;11.23;78.83
6532;BME280;3299;42.004;24.868;2023-01-01T09:30:35;99761.22;;;11.17;78.48
6532;BME280;3299;42.004;24.868;2023-01-01T09:33:01;99762.38;;;11.28;77.87
6532;BME280;3299;42.004;24.868;2023-01-01T09:35:28;99763.28;;;11.27;77.75
6532;BME280;3299;42.004;24.868;2023-01-01T09:37:53;99719.09;;;11.13;77.07
6532;BME280;3299;42.004;24.868;2023-01-01T09:43:24;99717.50;;;11.28;76.19
6532;BME280;3299;42.004;24.868;2023-01-01T09:46:01;99758.63;;;11.68;76.31
6532;BME280;3299;42.004;24.868;2023-01-01T09:48:29;99762.59;;;11.75;76.29
6532;BME280;3299;42.004;24.868;2023-01-01T09:50:57;99741.50;;;11.81;75.71
6532;BME280;3299;42.004;24.868;2023-01-01T09:53:42;99753.03;;;11.92;75.57
6532;BME280;3299;42.004;24.868;2023-01-01T09:56:18;99701.34;;;11.72;75.46
6532;BME280;3299;42.004;24.868;2023-01-01T09:58:45;99735.53;;;11.96;75.42
6532;BME280;3299;42.004;24.868;2023-01-01T10:15:36;99624.56;;;11.70;77.36
6532;BME280;3299;42.004;24.868;2023-01-01T10:18:08;99703.66;;;12.25;77.78
6532;BME280;3299;42.004;24.868;2023-01-01T10:20:43;99666.66;;;12.06;77.68
6532;BME280;3299;42.004;24.868;2023-01-01T10:23:15;99709.84;;;12.38;77.04
6532;BME280;3299;42.004;24.868;2023-01-01T10:25:43;99701.00;;;12.42;76.71
6532;BME280;3299;42.004;24.868;2023-01-01T10:28:20;99711.69;;;12.51;76.65
6532;BME280;3299;42.004;24.868;2023-01-01T10:30:49;99639.88;;;12.21;77.07
6532;BME280;3299;42.004;24.868;2023-01-01T10:33:15;99695.94;;;12.54;77.23
6532;BME280;3299;42.004;24.868;2023-01-01T10:35:48;99677.84;;;12.53;77.02
6532;BME280;3299;42.004;24.868;2023-01-01T10:38:23;99707.22;;;12.69;77.01
6532;BME280;3299;42.004;24.868;2023-01-01T10:40:50;99655.41;;;12.52;75.81
6532;BME280;3299;42.004;24.868;2023-01-01T10:43:16;99690.34;;;12.76;75.42
6532;BME280;3299;42.004;24.868;2023-01-01T10:45:46;99615.47;;;12.39;75.18
6532;BME280;3299;42.004;24.868;2023-01-01T10:48:23;99693.69;;;12.93;75.51
6532;BME280;3299;42.004;24.868;2023-01-01T10:50:58;99710.91;;;13.10;75.80
6532;BME280;3299;42.004;24.868;2023-01-01T10:56:02;99706.13;;;13.32;74.44
6532;BME280;3299;42.004;24.868;2023-01-01T10:58:35;99659.13;;;13.07;74.76
6532;BME280;3299;42.004;24.868;2023-01-01T11:01:03;99633.69;;;12.98;75.29
6532;BME280;3299;42.004;24.868;2023-01-01T11:03:29;99698.16;;;13.35;75.35
6532;BME280;3299;42.004;24.868;2023-01-01T11:08:33;99682.47;;;13.36;75.52
6532;BME280;3299;42.004;24.868;2023-01-01T11:11:00;99671.50;;;13.31;75.30
6532;BME280;3299;42.004;24.868;2023-01-01T11:13:27;99636.97;;;13.15;75.02
6532;BME280;3299;42.004;24.868;2023-01-01T11:15:53;99601.75;;;12.96;74.83
6532;BME280;3299;42.004;24.868;2023-01-01T11:18:27;99683.31;;;13.51;74.60
6532;BME280;3299;42.004;24.868;2023-01-01T11:21:00;99637.25;;;13.25;74.96
6532;BME280;3299;42.004;24.868;2023-01-01T11:23:35;99677.66;;;13.44;75.54
6532;BME280;3299;42.004;24.868;2023-01-01T11:26:17;99633.06;;;13.22;75.92
6532;BME280;3299;42.004;24.868;2023-01-01T11:31:28;99580.03;;;12.97;76.03
6532;BME280;3299;42.004;24.868;2023-01-01T11:33:55;99621.53;;;13.12;76.19
6532;BME280;3299;42.004;24.868;2023-01-01T11:36:22;99666.97;;;13.35;76.82
6532;BME280;3299;42.004;24.868;2023-01-01T11:39:15;99666.56;;;13.27;77.43
6532;BME280;3299;42.004;24.868;2023-01-01T11:41:46;99646.59;;;13.13;77.91
6532;BME280;3299;42.004;24.868;2023-01-01T11:44:24;99658.56;;;13.16;76.62
6532;BME280;3299;42.004;24.868;2023-01-01T11:46:50;99642.53;;;13.09;76.71
6532;BME280;3299;42.004;24.868;2023-01-01T11:49:23;99655.97;;;13.16;76.51
6532;BME280;3299;42.004;24.868;2023-01-01T11:51:49;99611.06;;;12.84;77.38
6532;BME280;3299;42.004;24.868;2023-01-01T11:56:44;99653.81;;;13.08;78.02
6532;BME280;3299;42.004;24.868;2023-01-01T11:59:14;99601.81;;;12.80;78.13
6532;BME280;3299;42.004;24.868;2023-01-01T12:02:00;99636.00;;;13.02;78.07
6532;BME280;3299;42.004;24.868;2023-01-01T12:04:53;99606.53;;;12.88;76.89
6532;BME280;3299;42.004;24.868;2023-01-01T12:07:24;99651.34;;;13.21;75.68
6532;BME280;3299;42.004;24.868;2023-01-01T12:10:12;99647.06;;;13.34;74.76
6532;BME280;3299;42.004;24.868;2023-01-01T12:12:52;99609.09;;;13.17;74.83
6532;BME280;3299;42.004;24.868;2023-01-01T12:15:57;99640.41;;;13.44;73.90
6532;BME280;3299;42.004;24.868;2023-01-01T12:21:13;99587.84;;;13.11;75.09
6532;BME280;3299;42.004;24.868;2023-01-01T12:23:41;99634.56;;;13.26;76.23
6532;BME280;3299;42.004;24.868;2023-01-01T12:37:25;99623.31;;;13.12;76.18
6532;BME280;3299;42.004;24.868;2023-01-01T12:42:52;99609.00;;;13.05;76.60
6532;BME280;3299;42.004;24.868;2023-01-01T12:45:38;99605.66;;;13.03;76.74
6532;BME280;3299;42.004;24.868;2023-01-01T12:51:11;99565.59;;;12.77;76.83
6532;BME280;3299;42.004;24.868;2023-01-01T12:56:45;99614.06;;;12.92;78.34
6532;BME280;3299;42.004;24.868;2023-01-01T12:59:17;99568.34;;;12.60;79.74
6532;BME280;3299;42.004;24.868;2023-01-01T13:01:44;99530.03;;;12.20;80.78
6532;BME280;3299;42.004;24.868;2023-01-01T13:04:21;99602.09;;;12.60;81.15
6532;BME280;3299;42.004;24.868;2023-01-01T13:07:00;99577.16;;;12.58;79.23
6532;BME280;3299;42.004;24.868;2023-01-01T13:09:42;99550.72;;;12.51;78.63
6532;BME280;3299;42.004;24.868;2023-01-01T13:12:17;99586.28;;;12.65;80.11
6532;BME280;3299;42.004;24.868;2023-01-01T13:14:46;99601.94;;;12.63;81.21
6532;BME280;3299;42.004;24.868;2023-01-01T13:17:20;99595.44;;;12.56;82.30
6532;BME280;3299;42.004;24.868;2023-01-01T13:19:49;99550.06;;;12.18;83.15
6532;BME280;3299;42.004;24.868;2023-01-01T13:35:44;99600.94;;;12.21;85.26
6532;BME280;3299;42.004;24.868;2023-01-01T13:43:50;99573.03;;;11.79;87.08
6532;BME280;3299;42.004;24.868;2023-01-01T13:46:17;99615.78;;;12.03;86.98
6532;BME280;3299;42.004;24.868;2023-01-01T13:55:29;99625.56;;;12.14;86.17
6532;BME280;3299;42.004;24.868;2023-01-01T14:03:39;99630.66;;;11.69;88.73
6532;BME280;3299;42.004;24.868;2023-01-01T14:06:36;99627.06;;;11.71;88.41
6532;BME280;3299;42.004;24.868;2023-01-01T14:09:12;99584.94;;;11.35;88.94
6532;BME280;3299;42.004;24.868;2023-01-01T14:11:38;99641.50;;;11.60;89.65
6532;BME280;3299;42.004;24.868;2023-01-01T14:14:27;99636.47;;;11.57;90.11
6532;BME280;3299;42.004;24.868;2023-01-01T14:16:56;99624.75;;;11.50;90.09
6532;BME280;3299;42.004;24.868;2023-01-01T14:19:23;99590.78;;;11.23;90.33
6532;BME280;3299;42.004;24.868;2023-01-01T14:21:50;99562.53;;;11.02;90.77
6532;BME280;3299;42.004;24.868;2023-01-01T14:24:18;99620.22;;;11.38;90.85
6532;BME280;3299;42.004;24.868;2023-01-01T14:26:45;99622.03;;;11.36;91.13
6532;BME280;3299;42.004;24.868;2023-01-01T14:29:37;99633.25;;;11.36;91.55
6532;BME280;3299;42.004;24.868;2023-01-01T14:32:14;99625.81;;;11.30;91.93
6532;BME280;3299;42.004;24.868;2023-01-01T14:34:39;99613.81;;;11.12;92.42
6532;BME280;3299;42.004;24.868;2023-01-01T14:37:22;99638.22;;;11.24;92.67
6532;BME280;3299;42.004;24.868;2023-01-01T14:40:19;99625.97;;;11.10;93.03
6532;BME280;3299;42.004;24.868;2023-01-01T14:42:55;99627.00;;;11.08;93.47
6532;BME280;3299;42.004;24.868;2023-01-01T14:45:22;99581.19;;;10.76;93.58
6532;BME280;3299;42.004;24.868;2023-01-01T14:47:49;99588.19;;;10.74;93.80
6532;BME280;3299;42.004;24.868;2023-01-01T14:52:54;99564.44;;;10.49;94.19
6532;BME280;3299;42.004;24.868;2023-01-01T14:55:21;99622.53;;;10.77;95.12
6532;BME280;3299;42.004;24.868;2023-01-01T14:57:55;99630.53;;;10.73;95.36
6532;BME280;3299;42.004;24.868;2023-01-01T15:00:25;99546.03;;;10.21;95.58
6532;BME280;3299;42.004;24.868;2023-01-01T15:02:51;99575.69;;;10.31;96.52
6532;BME280;3299;42.004;24.868;2023-01-01T15:05:31;99577.38;;;10.32;96.59
6532;BME280;3299;42.004;24.868;2023-01-01T15:07:59;99565.66;;;10.25;96.53
6532;BME280;3299;42.004;24.868;2023-01-01T15:10:30;99591.38;;;10.28;96.89
6532;BME280;3299;42.004;24.868;2023-01-01T15:12:56;99619.00;;;10.44;96.61
6532;BME280;3299;42.004;24.868;2023-01-01T15:15:46;99619.88;;;10.45;96.90
6532;BME280;3299;42.004;24.868;2023-01-01T15:18:42;99618.63;;;10.52;95.95